createdAt,value
2023-04-15T00:00:18.001Z,5.91
2023-04-15T00:03:22.999Z,5.94
2023-04-15T00:06:26.510Z,5.96
2023-04-15T00:09:29.050Z,5.97
2023-04-15T00:12:31.834Z,5.94
2023-04-15T00:15:34.313Z,6.02
2023-04-15T00:18:37.687Z,6.05
2023-04-15T00:21:40.201Z,6.06
2023-04-15T00:24:43.087Z,6.14
2023-04-15T00:27:45.547Z,6.07
2023-04-15T00:30:50.749Z,6.21
2023-04-15T00:33:53.339Z,6.15
2023-04-15T00:36:58.501Z,6.17
2023-04-15T00:40:01.583Z,6.08
2023-04-15T00:43:04.463Z,6.10
2023-04-15T00:46:07.980Z,6.16
2023-04-15T00:49:11.314Z,6.22
2023-04-15T00:52:14.520Z,6.22
2023-04-15T00:55:17.083Z,6.24
2023-04-15T00:58:19.729Z,6.27
2023-04-15T01:01:24.956Z,6.23
2023-04-15T01:04:27.902Z,6.21
2023-04-15T01:07:32.002Z,6.27
2023-04-15T01:10:35.443Z,6.30
2023-04-15T01:13:38.152Z,6.34
2023-04-15T01:16:41.156Z,6.42
2023-04-15T01:19:43.955Z,6.42
2023-04-15T01:22:47.038Z,6.42
2023-04-15T01:25:51.615Z,6.46
2023-04-15T01:28:54.895Z,6.54
2023-04-15T01:31:57.717Z,6.43
2023-04-15T01:35:03.223Z,6.50
2023-04-15T01:38:07.828Z,6.50
2023-04-15T01:41:10.404Z,6.46
2023-04-15T01:44:12.931Z,6.39
2023-04-15T01:47:16.074Z,6.26
2023-04-15T01:50:19.138Z,6.24
2023-04-15T01:53:21.672Z,6.26
2023-04-15T01:56:26.915Z,6.40
2023-04-15T01:59:31.397Z,6.37
2023-04-15T02:02:35.062Z,6.37
2023-04-15T02:05:37.679Z,6.39
2023-04-15T02:08:40.131Z,6.34
2023-04-15T02:11:43.946Z,6.27
2023-04-15T02:14:46.473Z,6.31
2023-04-15T02:17:51.218Z,6.26
2023-04-15T02:20:53.904Z,6.36
2023-04-15T02:23:57.198Z,6.40
2023-04-15T02:26:59.721Z,6.37
2023-04-15T02:30:03.274Z,6.34
2023-04-15T02:33:05.886Z,6.23
2023-04-15T02:36:09.548Z,6.25
2023-04-15T02:39:12.958Z,6.35
2023-04-15T02:42:15.463Z,6.40
2023-04-15T02:45:19.696Z,6.52
2023-04-15T02:48:22.914Z,6.57
2023-04-15T02:51:26.067Z,6.53
2023-04-15T02:54:28.937Z,6.39
2023-04-15T02:57:32.222Z,6.40
2023-04-15T03:00:40.561Z,6.37
2023-04-15T03:03:43.102Z,6.37
2023-04-15T03:06:46.945Z,6.35
2023-04-15T03:09:49.960Z,6.45
2023-04-15T03:12:53.231Z,6.47
2023-04-15T03:15:57.686Z,6.57
2023-04-15T03:19:00.630Z,6.56
2023-04-15T03:22:04.184Z,6.63
2023-04-15T03:25:07.015Z,6.56
2023-04-15T03:28:09.583Z,6.62
2023-04-15T03:31:12.370Z,6.65
2023-04-15T03:34:14.902Z,6.66
2023-04-15T03:37:17.409Z,6.68
2023-04-15T03:40:21.845Z,6.65
2023-04-15T03:43:24.417Z,6.70
2023-04-15T03:46:27.082Z,6.67
2023-04-15T03:49:29.565Z,6.68
2023-04-15T03:52:32.033Z,6.66
2023-04-15T03:55:34.460Z,6.73
2023-04-15T03:58:37.003Z,6.76
2023-04-15T04:01:39.499Z,6.80
2023-04-15T04:04:42.261Z,6.86
2023-04-15T04:07:45.086Z,6.74
2023-04-15T04:10:48.056Z,6.86
2023-04-15T04:13:50.718Z,6.82
2023-04-15T04:16:53.381Z,6.88
2023-04-15T04:19:56.206Z,6.89
2023-04-15T04:22:58.899Z,6.89
2023-04-15T04:26:01.528Z,6.98
2023-04-15T04:29:04.460Z,6.95
2023-04-15T04:32:07.157Z,7.03
2023-04-15T04:35:09.711Z,6.94
2023-04-15T04:38:12.240Z,6.91
2023-04-15T04:41:14.710Z,6.96
2023-04-15T04:44:17.771Z,7.04
2023-04-15T04:47:20.816Z,6.94
2023-04-15T04:50:23.559Z,6.97
2023-04-15T04:53:26.586Z,7.04
2023-04-15T04:56:29.110Z,7.10
2023-04-15T04:59:31.786Z,7.24
2023-04-15T05:02:35.370Z,7.40
2023-04-15T05:05:39.596Z,7.61
2023-04-15T05:08:42.280Z,7.68
2023-04-15T05:11:44.735Z,7.85
2023-04-15T05:14:47.569Z,7.87
2023-04-15T05:17:50.155Z,8.02
2023-04-15T05:20:52.728Z,8.14
2023-04-15T05:23:55.283Z,8.18
2023-04-15T05:26:57.858Z,8.31
2023-04-15T05:30:00.581Z,8.48
2023-04-15T05:33:03.994Z,8.63
2023-04-15T05:36:06.725Z,8.52
2023-04-15T05:39:09.729Z,8.55
2023-04-15T05:42:12.241Z,8.64
2023-04-15T05:45:14.824Z,8.76
2023-04-15T05:48:17.336Z,8.87
2023-04-15T05:51:19.990Z,8.98
2023-04-15T05:54:23.343Z,9.14
2023-04-15T05:57:25.876Z,9.15
2023-04-15T06:00:28.476Z,9.23
2023-04-15T06:03:31.209Z,9.36
2023-04-15T06:06:34.750Z,9.38
2023-04-15T06:09:38.116Z,9.33
2023-04-15T06:12:40.614Z,9.28
2023-04-15T06:15:43.332Z,9.19
2023-04-15T06:18:46.065Z,9.07
2023-04-15T06:21:49.357Z,9.25
2023-04-15T06:24:52.067Z,9.37
2023-04-15T06:27:54.515Z,9.22
2023-04-15T06:30:56.966Z,9.25
2023-04-15T06:33:59.398Z,9.41
2023-04-15T06:37:02.646Z,9.42
2023-04-15T06:40:08.570Z,9.46
2023-04-15T06:43:11.097Z,9.37
2023-04-15T06:46:13.773Z,9.30
2023-04-15T06:49:16.533Z,9.12
2023-04-15T06:52:19.487Z,9.25
2023-04-15T06:55:22.810Z,9.30
2023-04-15T06:58:25.391Z,9.42
2023-04-15T07:01:28.524Z,9.38
2023-04-15T07:04:32.962Z,9.39
2023-04-15T07:07:36.330Z,9.55
2023-04-15T07:10:38.861Z,9.58
2023-04-15T07:13:41.397Z,9.77
2023-04-15T07:16:43.884Z,9.75
2023-04-15T07:19:46.491Z,9.87
2023-04-15T07:22:49.867Z,9.98
2023-04-15T07:25:53.186Z,10.30
2023-04-15T07:28:55.711Z,10.45
2023-04-15T07:31:58.252Z,10.49
2023-04-15T07:35:02.291Z,10.58
2023-04-15T07:38:04.920Z,10.80
2023-04-15T07:41:07.500Z,10.67
2023-04-15T07:44:10.550Z,10.59
2023-04-15T07:47:14.252Z,10.67
2023-04-15T07:50:17.568Z,10.68
2023-04-15T07:53:20.842Z,10.39
2023-04-15T07:56:23.422Z,10.12
2023-04-15T07:59:30.081Z,10.16
2023-04-15T08:02:33.487Z,10.28
2023-04-15T08:05:36.198Z,10.43
2023-04-15T08:08:38.703Z,10.46
2023-04-15T08:11:41.717Z,10.63
2023-04-15T08:14:44.413Z,10.66
2023-04-15T08:17:47.248Z,10.83
2023-04-15T08:20:49.805Z,11.04
2023-04-15T08:23:53.529Z,11.15
2023-04-15T08:26:57.700Z,11.36
2023-04-15T08:30:02.130Z,11.22
2023-04-15T08:33:07.265Z,11.60
2023-04-15T08:36:10.129Z,11.76
2023-04-15T08:39:12.822Z,11.73
2023-04-15T08:42:23.540Z,11.74
2023-04-15T08:45:26.398Z,11.62
2023-04-15T08:48:32.639Z,11.94
2023-04-15T08:51:35.623Z,12.03
2023-04-15T08:54:38.832Z,12.07
2023-04-15T08:57:41.614Z,12.52
2023-04-15T09:00:44.276Z,12.30
2023-04-15T09:03:50.556Z,12.69
2023-04-15T09:06:53.183Z,13.05
2023-04-15T09:09:55.906Z,12.54
2023-04-15T09:12:58.915Z,12.10
2023-04-15T09:16:04.530Z,12.01
2023-04-15T09:19:27.959Z,11.96
2023-04-15T09:22:33.741Z,12.10
2023-04-15T09:25:36.649Z,12.30
2023-04-15T09:28:43.591Z,12.43
2023-04-15T09:31:47.089Z,13.08
2023-04-15T09:34:49.821Z,13.26
2023-04-15T09:37:53.589Z,13.24
2023-04-15T09:40:56.192Z,12.85
2023-04-15T09:43:58.847Z,12.81
2023-04-15T09:47:02.030Z,13.29
2023-04-15T09:50:04.883Z,13.11
2023-04-15T09:53:09.992Z,13.01
2023-04-15T09:56:12.895Z,12.79
2023-04-15T09:59:15.712Z,13.29
2023-04-15T10:02:21.130Z,13.47
2023-04-15T10:05:24.096Z,13.65
2023-04-15T10:08:29.839Z,13.44
2023-04-15T10:11:34.325Z,13.29
2023-04-15T10:14:38.965Z,13.16
2023-04-15T10:17:45.430Z,12.83
2023-04-15T10:20:50.557Z,12.94
2023-04-15T10:23:54.253Z,12.83
2023-04-15T10:26:59.751Z,12.96
2023-04-15T10:30:04.234Z,13.27
2023-04-15T10:33:10.339Z,13.30
2023-04-15T10:36:14.148Z,13.51
2023-04-15T10:39:34.755Z,13.27
2023-04-15T10:42:37.821Z,13.41
2023-04-15T10:45:45.028Z,13.29
2023-04-15T10:48:49.893Z,12.92
2023-04-15T10:51:57.478Z,12.51
2023-04-15T10:55:24.518Z,12.29
2023-04-15T10:58:42.357Z,12.45
2023-04-15T11:02:00.262Z,12.85
2023-04-15T11:05:03.891Z,13.06
2023-04-15T11:08:06.755Z,12.96
2023-04-15T11:11:09.319Z,12.67
2023-04-15T11:14:16.341Z,12.57
2023-04-15T11:17:28.880Z,12.99
2023-04-15T11:20:32.519Z,13.49
2023-04-15T11:23:49.643Z,13.08
2023-04-15T11:26:57.711Z,12.72
2023-04-15T11:30:00.369Z,12.49
2023-04-15T11:33:05.941Z,12.41
2023-04-15T11:36:08.408Z,12.07
2023-04-15T11:39:11.100Z,12.24
2023-04-15T11:42:18.439Z,13.00
2023-04-15T11:45:21.268Z,12.72
2023-04-15T11:48:27.612Z,12.59
2023-04-15T11:51:34.050Z,12.78
2023-04-15T11:54:37.580Z,12.63
2023-04-15T11:57:40.163Z,13.45
2023-04-15T12:00:57.759Z,13.05
2023-04-15T12:04:01.800Z,12.72
2023-04-15T12:07:07.728Z,12.63
2023-04-15T12:10:10.675Z,13.20
2023-04-15T12:13:13.395Z,14.05
2023-04-15T12:16:20.086Z,13.79
2023-04-15T12:19:24.777Z,13.12
2023-04-15T12:22:27.333Z,13.51
2023-04-15T12:25:35.974Z,13.66
2023-04-15T12:28:41.786Z,14.18
2023-04-15T12:31:52.273Z,14.22
2023-04-15T12:34:55.375Z,15.24
2023-04-15T12:37:57.868Z,15.00
2023-04-15T12:41:00.475Z,14.50
2023-04-15T12:44:04.139Z,14.47
2023-04-15T12:47:07.916Z,13.94
2023-04-15T12:50:10.733Z,14.07
2023-04-15T12:53:13.881Z,13.36
2023-04-15T12:56:17.565Z,13.10
2023-04-15T12:59:21.243Z,12.80
2023-04-15T13:02:25.898Z,12.62
2023-04-15T13:05:28.493Z,12.62
2023-04-15T13:08:31.558Z,12.42
2023-04-15T13:11:34.352Z,12.21
2023-04-15T13:14:37.268Z,12.15
2023-04-15T13:17:39.890Z,12.37
2023-04-15T13:20:42.526Z,12.48
2023-04-15T13:23:45.050Z,12.90
2023-04-15T13:26:50.366Z,13.10
2023-04-15T13:29:54.594Z,13.46
2023-04-15T13:32:57.243Z,14.39
2023-04-15T13:35:59.775Z,14.68
2023-04-15T13:39:03.280Z,14.50
2023-04-15T13:42:06.064Z,14.00
2023-04-15T13:45:09.939Z,13.76
2023-04-15T13:48:12.474Z,13.42
2023-04-15T13:51:14.975Z,13.55
2023-04-15T13:54:17.528Z,13.92
2023-04-15T13:57:20.147Z,13.84
2023-04-15T14:00:22.823Z,13.86
2023-04-15T14:03:26.458Z,13.76
2023-04-15T14:06:31.703Z,13.03
2023-04-15T14:09:35.558Z,12.70
2023-04-15T14:12:38.403Z,12.52
2023-04-15T14:15:41.727Z,12.47
2023-04-15T14:18:44.824Z,12.48
2023-04-15T14:21:47.595Z,12.54
2023-04-15T14:24:53.156Z,12.46
2023-04-15T14:27:55.903Z,12.47
2023-04-15T14:30:58.918Z,12.38
2023-04-15T14:34:01.610Z,12.13
2023-04-15T14:37:05.121Z,12.16
2023-04-15T14:40:08.402Z,12.05
2023-04-15T14:43:11.381Z,11.94
2023-04-15T14:46:14.652Z,11.99
2023-04-15T14:49:17.249Z,11.85
2023-04-15T14:52:20.014Z,11.84
2023-04-15T14:55:22.862Z,11.94
2023-04-15T14:58:25.496Z,12.07
2023-04-15T15:01:28.412Z,12.26
2023-04-15T15:04:33.483Z,12.39
2023-04-15T15:07:40.918Z,12.24
2023-04-15T15:10:49.339Z,12.20
2023-04-15T15:13:52.336Z,12.09
2023-04-15T15:16:54.915Z,12.16
2023-04-15T15:19:57.683Z,12.16
2023-04-15T15:23:00.954Z,12.19
2023-04-15T15:26:03.486Z,12.20
2023-04-15T15:29:06.357Z,12.01
2023-04-15T15:32:09.405Z,12.05
2023-04-15T15:35:11.851Z,12.08
2023-04-15T15:38:15.052Z,12.10
2023-04-15T15:41:17.750Z,11.96
2023-04-15T15:44:20.237Z,11.91
2023-04-15T15:47:23.184Z,11.83
2023-04-15T15:50:25.880Z,11.78
2023-04-15T15:53:28.670Z,11.72
2023-04-15T15:56:31.455Z,11.64
2023-04-15T15:59:34.448Z,11.62
2023-04-15T16:03:04.303Z,11.52
2023-04-15T16:06:00.198Z,11.52
2023-04-15T16:09:03.278Z,11.43
2023-04-15T16:12:06.074Z,11.44
2023-04-15T16:15:10.879Z,10.96
2023-04-15T16:18:13.428Z,10.67
2023-04-15T16:21:16.128Z,10.51
2023-04-15T16:24:18.953Z,10.54
2023-04-15T16:27:21.418Z,10.37
2023-04-15T16:30:24.243Z,10.29
2023-04-15T16:33:26.860Z,10.39
2023-04-15T16:36:29.517Z,10.40
2023-04-15T16:39:32.498Z,10.45
2023-04-15T16:42:35.023Z,10.37
2023-04-15T16:45:38.213Z,10.24
2023-04-15T16:48:40.712Z,10.04
2023-04-15T16:51:43.454Z,10.07
2023-04-15T16:54:46.093Z,9.93
2023-04-15T16:58:02.473Z,9.97
2023-04-15T17:01:06.378Z,9.96
2023-04-15T17:04:09.256Z,9.83
2023-04-15T17:07:12.093Z,9.84
2023-04-15T17:10:14.700Z,9.77
2023-04-15T17:13:17.377Z,9.71
2023-04-15T17:16:20.276Z,9.78
2023-04-15T17:19:23.254Z,9.69
2023-04-15T17:22:26.058Z,9.78
2023-04-15T17:25:28.514Z,9.67
2023-04-15T17:28:31.161Z,9.55
2023-04-15T17:31:33.883Z,9.49
2023-04-15T17:34:50.191Z,9.45
2023-04-15T17:37:53.775Z,9.34
2023-04-15T17:40:56.266Z,9.25
2023-04-15T17:43:59.001Z,9.21
2023-04-15T17:47:02.471Z,9.21
2023-04-15T17:50:05.840Z,9.15
2023-04-15T17:53:09.129Z,9.07
2023-04-15T17:56:11.886Z,9.00
2023-04-15T17:59:16.579Z,9.02
2023-04-15T18:02:19.583Z,8.92
2023-04-15T18:05:22.337Z,8.79
2023-04-15T18:08:25.302Z,8.74
2023-04-15T18:11:28.197Z,8.69
2023-04-15T18:14:34.659Z,8.58
2023-04-15T18:17:38.027Z,8.50
2023-04-15T18:20:40.599Z,8.47
2023-04-15T18:23:44.019Z,8.35
2023-04-15T18:26:48.858Z,8.21
2023-04-15T18:29:52.072Z,8.14
2023-04-15T18:32:54.763Z,8.08
2023-04-15T18:35:57.737Z,8.01
2023-04-15T18:39:00.481Z,7.98
2023-04-15T18:42:03.476Z,7.97
2023-04-15T18:45:07.738Z,7.91
2023-04-15T18:48:10.412Z,7.90
2023-04-15T18:51:13.121Z,7.88
2023-04-15T18:54:16.626Z,7.81
2023-04-15T18:57:23.316Z,7.86
2023-04-15T19:00:36.463Z,7.88
2023-04-15T19:03:39.725Z,7.82
2023-04-15T19:06:42.870Z,7.82
2023-04-15T19:09:46.714Z,7.86
2023-04-15T19:12:49.537Z,7.81
2023-04-15T19:15:52.640Z,7.73
2023-04-15T19:18:55.565Z,7.70
2023-04-15T19:21:58.236Z,7.62
2023-04-15T19:25:01.225Z,7.57
2023-04-15T19:28:04.137Z,7.55
2023-04-15T19:31:07.832Z,7.50
2023-04-15T19:34:11.206Z,7.47
2023-04-15T19:37:16.362Z,7.45
2023-04-15T19:40:19.264Z,7.42
2023-04-15T19:43:22.930Z,7.35
2023-04-15T19:46:26.949Z,7.34
2023-04-15T19:49:30.435Z,7.35
2023-04-15T19:52:34.449Z,7.36
2023-04-15T19:55:37.376Z,7.35
2023-04-15T19:58:40.857Z,7.40
2023-04-15T20:01:43.489Z,7.43
2023-04-15T20:04:46.396Z,7.43
2023-04-15T20:07:52.346Z,7.35
2023-04-15T20:10:56.868Z,7.30
2023-04-15T20:13:59.607Z,7.29
2023-04-15T20:17:02.544Z,7.35
2023-04-15T20:20:07.961Z,7.36
2023-04-15T20:23:11.347Z,7.37
2023-04-15T20:26:13.866Z,7.44
2023-04-15T20:29:16.576Z,7.43
2023-04-15T20:32:19.268Z,7.46
2023-04-15T20:35:22.190Z,7.49
2023-04-15T20:38:25.021Z,7.52
2023-04-15T20:41:29.128Z,7.62
2023-04-15T20:44:32.001Z,7.50
2023-04-15T20:47:34.707Z,7.47
2023-04-15T20:50:38.974Z,7.47
2023-04-15T20:53:42.330Z,7.50
2023-04-15T20:56:44.948Z,7.47
2023-04-15T20:59:47.864Z,7.52
2023-04-15T21:02:51.185Z,7.47
2023-04-15T21:05:53.747Z,7.44
2023-04-15T21:08:56.880Z,7.46
2023-04-15T21:12:01.550Z,7.44
2023-04-15T21:15:05.446Z,7.46
2023-04-15T21:18:08.008Z,7.51
2023-04-15T21:21:11.675Z,7.57
2023-04-15T21:24:14.323Z,7.58
2023-04-15T21:27:16.740Z,7.65
2023-04-15T21:30:19.339Z,7.65
2023-04-15T21:33:21.993Z,7.69
2023-04-15T21:36:24.556Z,7.78
2023-04-15T21:39:30.430Z,7.69
2023-04-15T21:42:32.975Z,7.66
2023-04-15T21:45:36.640Z,7.66
2023-04-15T21:48:39.383Z,7.69
2023-04-15T21:51:41.998Z,7.64
2023-04-15T21:54:44.570Z,7.54
2023-04-15T21:57:48.358Z,7.48
2023-04-15T22:00:52.441Z,7.45
2023-04-15T22:03:55.260Z,7.46
2023-04-15T22:07:01.730Z,7.46
2023-04-15T22:10:04.787Z,7.42
2023-04-15T22:13:11.096Z,7.49
2023-04-15T22:16:13.633Z,7.40
2023-04-15T22:19:16.175Z,7.38
2023-04-15T22:22:19.045Z,7.34
2023-04-15T22:25:22.546Z,7.32
2023-04-15T22:28:25.552Z,7.28
2023-04-15T22:31:28.195Z,7.32
2023-04-15T22:34:31.014Z,7.23
2023-04-15T22:37:33.598Z,7.20
2023-04-15T22:40:36.123Z,7.16
2023-04-15T22:43:38.606Z,7.09
2023-04-15T22:46:41.332Z,7.08
2023-04-15T22:49:44.973Z,7.03
2023-04-15T22:52:48.360Z,6.95
2023-04-15T22:55:51.765Z,6.95
2023-04-15T22:58:54.526Z,6.89
2023-04-15T23:01:59.472Z,6.89
2023-04-15T23:05:06.291Z,6.86
2023-04-15T23:08:15.448Z,6.88
2023-04-15T23:11:18.553Z,6.92
2023-04-15T23:14:21.450Z,6.93
2023-04-15T23:17:24.013Z,6.98
2023-04-15T23:20:26.559Z,7.11
2023-04-15T23:23:29.048Z,7.11
2023-04-15T23:26:31.738Z,7.11
2023-04-15T23:29:34.254Z,7.01
2023-04-15T23:32:36.894Z,7.01
2023-04-15T23:35:39.843Z,7.08
2023-04-15T23:38:42.412Z,7.05
2023-04-15T23:41:44.996Z,7.05
2023-04-15T23:44:47.597Z,7.01
2023-04-15T23:47:50.140Z,6.99
2023-04-15T23:50:52.663Z,7.02
2023-04-15T23:53:55.215Z,7.07
2023-04-15T23:56:57.703Z,7.00
